sensor_id;sensor_type;location;lat;lon;timestamp;pressure;altitude;pressure_sealevel;temperature;humidity
47330;BME280;33060;50.178;7.570;2023-03-20T00:02:05;97216.78;;;8.32;100.00
47330;BME280;33060;50.178;7.570;2023-03-20T00:04:32;97213.66;;;8.25;100.00
47330;BME280;33060;50.178;7.570;2023-03-20T00:06:59;97211.13;;;8.23;100.00
47330;BME280;33060;50.178;7.570;2023-03-20T00:09:26;97215.91;;;8.17;100.00
47330;BME280;33060;50.178;7.570;2023-03-20T00:11:54;97215.72;;;8.20;100.00
47330;BME280;33060;50.178;7.570;2023-03-20T00:14:22;97217.16;;;8.26;100.00
47330;BME280;33060;50.178;7.570;2023-03-20T00:16:50;97210.19;;;8.25;100.00
47330;BME280;33060;50.178;7.570;2023-03-20T00:19:27;97219.94;;;8.22;100.00
47330;BME280;33060;50.178;7.570;2023-03-20T00:21:57;97219.84;;;8.24;100.00
47330;BME280;33060;50.178;7.570;2023-03-20T00:24:24;97225.13;;;8.24;100.00
47330;BME280;33060;50.178;7.570;2023-03-20T00:26:51;97227.69;;;8.26;100.00
47330;BME280;33060;50.178;7.570;2023-03-20T00:29:27;97227.75;;;8.24;100.00
47330;BME280;33060;50.178;7.570;2023-03-20T00:31:56;97232.75;;;8.29;100.00
47330;BME280;33060;50.178;7.570;2023-03-20T00:34:26;97233.50;;;8.31;100.00
47330;BME280;33060;50.178;7.570;2023-03-20T00:36:54;97235.91;;;8.35;100.00
47330;BME280;33060;50.178;7.570;2023-03-20T00:39:22;97230.56;;;8.37;100.00
47330;BME280;33060;50.178;7.570;2023-03-20T00:41:55;97238.34;;;8.38;100.00
47330;BME280;33060;50.178;7.570;2023-03-20T00:44:47;97239.19;;;8.39;100.00
47330;BME280;33060;50.178;7.570;2023-03-20T00:47:18;97233.09;;;8.38;100.00
47330;BME280;33060;50.178;7.570;2023-03-20T00:49:47;97235.53;;;8.41;100.00
47330;BME280;33060;50.178;7.570;2023-03-20T00:52:17;97239.09;;;8.40;100.00
47330;BME280;33060;50.178;7.570;2023-03-20T00:54:44;97231.88;;;8.44;100.00
47330;BME280;33060;50.178;7.570;2023-03-20T00:57:45;97237.72;;;8.49;100.00
47330;BME280;33060;50.178;7.570;2023-03-20T01:00:05;97237.72;;;8.49;100.00
47330;BME280;33060;50.178;7.570;2023-03-20T01:02:44;97235.91;;;8.49;100.00
47330;BME280;33060;50.178;7.570;2023-03-20T01:05:23;97241.03;;;8.53;100.00
47330;BME280;33060;50.178;7.570;2023-03-20T01:07:52;97245.25;;;8.55;100.00
47330;BME280;33060;50.178;7.570;2023-03-20T01:10:23;97249.66;;;8.55;100.00
47330;BME280;33060;50.178;7.570;2023-03-20T01:12:53;97245.34;;;8.54;100.00
47330;BME280;33060;50.178;7.570;2023-03-20T01:15:24;97247.78;;;8.57;100.00
47330;BME280;33060;50.178;7.570;2023-03-20T01:17:52;97248.63;;;8.57;100.00
47330;BME280;33060;50.178;7.570;2023-03-20T01:20:26;97248.63;;;8.57;100.00
47330;BME280;33060;50.178;7.570;2023-03-20T01:22:53;97259.31;;;8.54;100.00
47330;BME280;33060;50.178;7.570;2023-03-20T01:25:20;97261.28;;;8.50;100.00
47330;BME280;33060;50.178;7.570;2023-03-20T01:27:51;97261.75;;;8.43;100.00
47330;BME280;33060;50.178;7.570;2023-03-20T01:30:25;97260.03;;;8.42;100.00
47330;BME280;33060;50.178;7.570;2023-03-20T01:32:52;97261.91;;;8.40;100.00
47330;BME280;33060;50.178;7.570;2023-03-20T01:35:22;97270.72;;;8.39;100.00
47330;BME280;33060;50.178;7.570;2023-03-20T01:37:50;97260.22;;;8.39;100.00
47330;BME280;33060;50.178;7.570;2023-03-20T01:40:31;97264.63;;;8.38;100.00
47330;BME280;33060;50.178;7.570;2023-03-20T01:43:00;97263.09;;;8.34;100.00
47330;BME280;33060;50.178;7.570;2023-03-20T01:45:33;97269.22;;;8.35;100.00
47330;BME280;33060;50.178;7.570;2023-03-20T01:48:15;97271.88;;;8.33;100.00
47330;BME280;33060;50.178;7.570;2023-03-20T01:50:42;97278.34;;;8.28;100.00
47330;BME280;33060;50.178;7.570;2023-03-20T01:53:24;97273.72;;;8.17;100.00
47330;BME280;33060;50.178;7.570;2023-03-20T01:55:56;97273.53;;;8.20;100.00
47330;BME280;33060;50.178;7.570;2023-03-20T01:58:35;97280.25;;;8.10;100.00
47330;BME280;33060;50.178;7.570;2023-03-20T02:01:06;97278.28;;;8.13;100.00
47330;BME280;33060;50.178;7.570;2023-03-20T02:03:34;97279.56;;;8.06;100.00
47330;BME280;33060;50.178;7.570;2023-03-20T02:06:31;97276.59;;;8.12;100.00
47330;BME280;33060;50.178;7.570;2023-03-20T02:09:14;97275.53;;;8.01;100.00
47330;BME280;33060;50.178;7.570;2023-03-20T02:11:44;97282.13;;;7.92;100.00
47330;BME280;33060;50.178;7.570;2023-03-20T02:14:12;97285.75;;;7.89;100.00
47330;BME280;33060;50.178;7.570;2023-03-20T02:16:57;97281.72;;;7.84;100.00
47330;BME280;33060;50.178;7.570;2023-03-20T02:20:10;97282.66;;;7.83;100.00
47330;BME280;33060;50.178;7.570;2023-03-20T02:26:11;97271.31;;;7.82;100.00
47330;BME280;33060;50.178;7.570;2023-03-20T02:35:01;97258.16;;;7.67;100.00
47330;BME280;33060;50.178;7.570;2023-03-20T02:38:12;97247.56;;;7.68;100.00
47330;BME280;33060;50.178;7.570;2023-03-20T02:41:04;97245.97;;;7.65;100.00
47330;BME280;33060;50.178;7.570;2023-03-20T02:43:44;97249.34;;;7.68;100.00
47330;BME280;33060;50.178;7.570;2023-03-20T02:46:36;97252.91;;;7.67;100.00
47330;BME280;33060;50.178;7.570;2023-03-20T02:52:03;97239.03;;;7.64;100.00
47330;BME280;33060;50.178;7.570;2023-03-20T02:54:43;97243.84;;;7.56;100.00
47330;BME280;33060;50.178;7.570;2023-03-20T02:57:30;97253.34;;;7.59;100.00
47330;BME280;33060;50.178;7.570;2023-03-20T03:00:12;97253.84;;;7.50;100.00
47330;BME280;33060;50.178;7.570;2023-03-20T03:03:19;97262.66;;;7.49;100.00
47330;BME280;33060;50.178;7.570;2023-03-20T03:06:01;97269.81;;;7.45;100.00
47330;BME280;33060;50.178;7.570;2023-03-20T03:08:36;97265.41;;;7.46;100.00
47330;BME280;33060;50.178;7.570;2023-03-20T03:11:06;97270.59;;;7.47;100.00
47330;BME280;33060;50.178;7.570;2023-03-20T03:13:40;97264.44;;;7.48;100.00
47330;BME280;33060;50.178;7.570;2023-03-20T03:16:11;97273.28;;;7.46;100.00
47330;BME280;33060;50.178;7.570;2023-03-20T03:18:40;97288.09;;;7.47;100.00
47330;BME280;33060;50.178;7.570;2023-03-20T03:21:11;97289.22;;;7.43;100.00
47330;BME280;33060;50.178;7.570;2023-03-20T03:23:46;97287.59;;;7.40;100.00
47330;BME280;33060;50.178;7.570;2023-03-20T03:26:20;97295.47;;;7.40;100.00
47330;BME280;33060;50.178;7.570;2023-03-20T03:29:01;97291.31;;;7.36;100.00
47330;BME280;33060;50.178;7.570;2023-03-20T03:31:30;97281.66;;;7.36;100.00
47330;BME280;33060;50.178;7.570;2023-03-20T03:33:58;97290.38;;;7.37;100.00
47330;BME280;33060;50.178;7.570;2023-03-20T03:39:49;97291.56;;;7.31;100.00
47330;BME280;33060;50.178;7.570;2023-03-20T03:42:36;97295.28;;;7.27;100.00
47330;BME280;33060;50.178;7.570;2023-03-20T03:45:14;97293.34;;;7.31;100.00
47330;BME280;33060;50.178;7.570;2023-03-20T03:47:46;97276.75;;;7.30;100.00
47330;BME280;33060;50.178;7.570;2023-03-20T03:50:25;97274.13;;;7.30;100.00
47330;BME280;33060;50.178;7.570;2023-03-20T03:52:59;97278.28;;;7.34;100.00
47330;BME280;33060;50.178;7.570;2023-03-20T03:55:34;97287.94;;;7.34;100.00
47330;BME280;33060;50.178;7.570;2023-03-20T04:00:36;97287.66;;;7.23;100.00
47330;BME280;33060;50.178;7.570;2023-03-20T04:03:04;97298.06;;;7.24;100.00
47330;BME280;33060;50.178;7.570;2023-03-20T04:05:35;97294.59;;;7.24;100.00
47330;BME280;33060;50.178;7.570;2023-03-20T04:08:04;97301.53;;;7.25;100.00
47330;BME280;33060;50.178;7.570;2023-03-20T04:10:32;97299.00;;;7.23;100.00
47330;BME280;33060;50.178;7.570;2023-03-20T04:12:58;97297.31;;;7.22;100.00
47330;BME280;33060;50.178;7.570;2023-03-20T04:15:25;97296.28;;;7.25;100.00
47330;BME280;33060;50.178;7.570;2023-03-20T04:17:53;97293.84;;;7.22;100.00
47330;BME280;33060;50.178;7.570;2023-03-20T04:20:21;97297.44;;;7.19;100.00
47330;BME280;33060;50.178;7.570;2023-03-20T04:22:49;97301.84;;;7.19;100.00
47330;BME280;33060;50.178;7.570;2023-03-20T04:25:19;97298.38;;;7.18;100.00
47330;BME280;33060;50.178;7.570;2023-03-20T04:27:48;97305.31;;;7.19;100.00
47330;BME280;33060;50.178;7.570;2023-03-20T04:30:37;97312.34;;;7.19;100.00
47330;BME280;33060;50.178;7.570;2023-03-20T04:33:13;97302.03;;;7.16;100.00
47330;BME280;33060;50.178;7.570;2023-03-20T04:36:10;97296.94;;;7.13;100.00
47330;BME280;33060;50.178;7.570;2023-03-20T04:38:38;97289.97;;;7.12;100.00
47330;BME280;33060;50.178;7.570;2023-03-20T04:41:06;97296.06;;;7.12;100.00
47330;BME280;33060;50.178;7.570;2023-03-20T04:43:34;97293.78;;;7.06;100.00
47330;BME280;33060;50.178;7.570;2023-03-20T04:46:01;97299.34;;;7.00;100.00
47330;BME280;33060;50.178;7.570;2023-03-20T04:48:28;97288.69;;;7.03;100.00
47330;BME280;33060;50.178;7.570;2023-03-20T04:50:55;97304.19;;;7.07;100.00
47330;BME280;33060;50.178;7.570;2023-03-20T04:53:28;97293.88;;;7.04;100.00
47330;BME280;33060;50.178;7.570;2023-03-20T04:55:55;97293.34;;;6.98;100.00
47330;BME280;33060;50.178;7.570;2023-03-20T04:58:22;97303.81;;;6.98;100.00
47330;BME280;33060;50.178;7.570;2023-03-20T05:00:49;97300.03;;;7.03;100.00
47330;BME280;33060;50.178;7.570;2023-03-20T05:03:16;97307.56;;;7.09;100.00
47330;BME280;33060;50.178;7.570;2023-03-20T05:05:43;97317.22;;;7.09;100.00
47330;BME280;33060;50.178;7.570;2023-03-20T05:08:10;97312.81;;;7.09;100.00
47330;BME280;33060;50.178;7.570;2023-03-20T05:10:37;97317.41;;;7.06;100.00
47330;BME280;33060;50.178;7.570;2023-03-20T05:13:33;97313.66;;;7.10;100.00
47330;BME280;33060;50.178;7.570;2023-03-20T05:16:14;97313.66;;;7.10;100.00
47330;BME280;33060;50.178;7.570;2023-03-20T05:19:14;97318.06;;;7.09;100.00
47330;BME280;33060;50.178;7.570;2023-03-20T05:21:59;97315.31;;;7.13;100.00
47330;BME280;33060;50.178;7.570;2023-03-20T05:24:49;97312.59;;;7.14;100.00
47330;BME280;33060;50.178;7.570;2023-03-20T05:27:31;97306.41;;;7.15;100.00
47330;BME280;33060;50.178;7.570;2023-03-20T05:30:16;97314.69;;;7.07;100.00
47330;BME280;33060;50.178;7.570;2023-03-20T05:33:14;97320.56;;;7.13;100.00
47330;BME280;33060;50.178;7.570;2023-03-20T05:35:52;97309.44;;;7.07;100.00
47330;BME280;33060;50.178;7.570;2023-03-20T05:38:30;97314.69;;;7.07;100.00
47330;BME280;33060;50.178;7.570;2023-03-20T05:41:24;97316.91;;;7.15;100.00
47330;BME280;33060;50.178;7.570;2023-03-20T05:44:03;97311.41;;;7.20;100.00
47330;BME280;33060;50.178;7.570;2023-03-20T05:46:53;97313.09;;;7.21;100.00
47330;BME280;33060;50.178;7.570;2023-03-20T05:49:51;97313.06;;;7.22;100.00
47330;BME280;33060;50.178;7.570;2023-03-20T05:52:35;97309.56;;;7.22;100.00
47330;BME280;33060;50.178;7.570;2023-03-20T05:55:09;97310.34;;;7.24;100.00
47330;BME280;33060;50.178;7.570;2023-03-20T05:57:49;97312.88;;;7.25;100.00
47330;BME280;33060;50.178;7.570;2023-03-20T06:00:25;97314.66;;;7.25;100.00
47330;BME280;33060;50.178;7.570;2023-03-20T06:03:12;97317.09;;;7.28;100.00
47330;BME280;33060;50.178;7.570;2023-03-20T06:05:54;97317.91;;;7.30;100.00
47330;BME280;33060;50.178;7.570;2023-03-20T06:08:21;97319.50;;;7.32;100.00
47330;BME280;33060;50.178;7.570;2023-03-20T06:10:51;97317.81;;;7.31;100.00
47330;BME280;33060;50.178;7.570;2023-03-20T06:13:18;97314.03;;;7.20;100.00
47330;BME280;33060;50.178;7.570;2023-03-20T06:15:45;97310.91;;;7.13;100.00
47330;BME280;33060;50.178;7.570;2023-03-20T06:18:15;97312.81;;;7.09;100.00
47330;BME280;33060;50.178;7.570;2023-03-20T06:20:42;97302.50;;;7.06;100.00
47330;BME280;33060;50.178;7.570;2023-03-20T06:23:08;97292.78;;;7.08;100.00
47330;BME280;33060;50.178;7.570;2023-03-20T06:25:35;97294.91;;;7.18;100.00
47330;BME280;33060;50.178;7.570;2023-03-20T06:28:02;97289.25;;;7.25;100.00
47330;BME280;33060;50.178;7.570;2023-03-20T06:30:29;97283.53;;;7.34;100.00
47330;BME280;33060;50.178;7.570;2023-03-20T06:32:57;97288.09;;;7.47;100.00
47330;BME280;33060;50.178;7.570;2023-03-20T06:35:31;97290.00;;;7.60;100.00
47330;BME280;33060;50.178;7.570;2023-03-20T06:38:00;97287.88;;;7.67;100.00
47330;BME280;33060;50.178;7.570;2023-03-20T06:40:26;97295.59;;;7.86;100.00
47330;BME280;33060;50.178;7.570;2023-03-20T06:42:54;97296.25;;;8.05;100.00
47330;BME280;33060;50.178;7.570;2023-03-20T06:45:23;97295.31;;;8.06;100.00
47330;BME280;33060;50.178;7.570;2023-03-20T06:47:58;97303.47;;;8.17;100.00
47330;BME280;33060;50.178;7.570;2023-03-20T06:50:25;97312.78;;;8.39;100.00
47330;BME280;33060;50.178;7.570;2023-03-20T06:52:52;97302.91;;;8.58;100.00
47330;BME280;33060;50.178;7.570;2023-03-20T06:55:45;97317.94;;;8.86;100.00
47330;BME280;33060;50.178;7.570;2023-03-20T06:58:12;97319.03;;;8.82;100.00
47330;BME280;33060;50.178;7.570;2023-03-20T07:00:39;97314.66;;;8.67;100.00
47330;BME280;33060;50.178;7.570;2023-03-20T07:03:07;97311.38;;;8.63;100.00
47330;BME280;33060;50.178;7.570;2023-03-20T07:05:34;97319.59;;;8.57;100.00
47330;BME280;33060;50.178;7.570;2023-03-20T07:08:05;97323.34;;;8.69;100.00
47330;BME280;33060;50.178;7.570;2023-03-20T07:10:34;97316.69;;;8.77;100.00
47330;BME280;33060;50.178;7.570;2023-03-20T07:13:01;97329.66;;;8.81;100.00
47330;BME280;33060;50.178;7.570;2023-03-20T07:15:27;97324.09;;;8.71;100.00
47330;BME280;33060;50.178;7.570;2023-03-20T07:17:55;97327.38;;;8.74;100.00
47330;BME280;33060;50.178;7.570;2023-03-20T07:20:25;97326.97;;;8.66;100.00
47330;BME280;33060;50.178;7.570;2023-03-20T07:22:52;97326.97;;;8.66;100.00
47330;BME280;33060;50.178;7.570;2023-03-20T07:25:24;97326.72;;;8.71;100.00
47330;BME280;33060;50.178;7.570;2023-03-20T07:28:10;97314.91;;;8.78;100.00
47330;BME280;33060;50.178;7.570;2023-03-20T07:30:40;97321.34;;;8.72;100.00
47330;BME280;33060;50.178;7.570;2023-03-20T07:33:08;97321.22;;;8.90;100.00
47330;BME280;33060;50.178;7.570;2023-03-20T07:35:34;97312.13;;;9.38;99.85
47330;BME280;33060;50.178;7.570;2023-03-20T07:38:02;97311.69;;;9.74;95.23
47330;BME280;33060;50.178;7.570;2023-03-20T07:40:29;97318.06;;;9.70;95.11
47330;BME280;33060;50.178;7.570;2023-03-20T07:43:00;97325.97;;;9.70;95.19
47330;BME280;33060;50.178;7.570;2023-03-20T07:46:06;97323.91;;;9.75;94.83
47330;BME280;33060;50.178;7.570;2023-03-20T07:48:35;97313.94;;;9.66;94.83
47330;BME280;33060;50.178;7.570;2023-03-20T07:51:02;97323.16;;;9.59;93.58
47330;BME280;33060;50.178;7.570;2023-03-20T07:53:29;97333.97;;;9.69;91.60
47330;BME280;33060;50.178;7.570;2023-03-20T07:55:55;97335.09;;;9.79;90.01
47330;BME280;33060;50.178;7.570;2023-03-20T07:58:22;97334.59;;;9.72;90.06
47330;BME280;33060;50.178;7.570;2023-03-20T08:00:49;97337.28;;;9.58;91.00
47330;BME280;33060;50.178;7.570;2023-03-20T08:03:15;97342.53;;;9.44;92.20
47330;BME280;33060;50.178;7.570;2023-03-20T08:05:42;97346.75;;;9.32;91.36
47330;BME280;33060;50.178;7.570;2023-03-20T08:08:12;97362.84;;;9.42;91.08
47330;BME280;33060;50.178;7.570;2023-03-20T08:10:39;97362.34;;;9.35;90.84
47330;BME280;33060;50.178;7.570;2023-03-20T08:13:05;97371.09;;;9.35;91.01
47330;BME280;33060;50.178;7.570;2023-03-20T08:15:32;97365.09;;;9.33;90.84
47330;BME280;33060;50.178;7.570;2023-03-20T08:17:59;97363.66;;;9.28;90.97
47330;BME280;33060;50.178;7.570;2023-03-20T08:20:26;97364.13;;;9.34;91.95
47330;BME280;33060;50.178;7.570;2023-03-20T08:22:52;97371.19;;;9.34;90.77
47330;BME280;33060;50.178;7.570;2023-03-20T08:25:19;97373.19;;;9.30;90.17
47330;BME280;33060;50.178;7.570;2023-03-20T08:27:47;97376.91;;;9.12;91.45
47330;BME280;33060;50.178;7.570;2023-03-20T08:30:14;97374.53;;;9.07;91.89
47330;BME280;33060;50.178;7.570;2023-03-20T08:32:41;97374.97;;;9.30;90.48
47330;BME280;33060;50.178;7.570;2023-03-20T08:35:08;97368.19;;;9.54;88.54
47330;BME280;33060;50.178;7.570;2023-03-20T08:37:55;97380.81;;;9.49;88.14
47330;BME280;33060;50.178;7.570;2023-03-20T08:40:21;97365.75;;;9.51;86.80
47330;BME280;33060;50.178;7.570;2023-03-20T08:42:48;97365.00;;;9.92;85.53
47330;BME280;33060;50.178;7.570;2023-03-20T08:45:15;97369.66;;;10.15;84.31
47330;BME280;33060;50.178;7.570;2023-03-20T08:47:42;97361.88;;;10.28;83.86
47330;BME280;33060;50.178;7.570;2023-03-20T08:50:09;97356.50;;;10.57;82.18
47330;BME280;33060;50.178;7.570;2023-03-20T08:52:36;97364.00;;;10.63;83.38
47330;BME280;33060;50.178;7.570;2023-03-20T08:55:03;97368.97;;;10.67;81.51
47330;BME280;33060;50.178;7.570;2023-03-20T08:57:30;97357.88;;;10.89;81.02
47330;BME280;33060;50.178;7.570;2023-03-20T08:59:56;97357.69;;;11.05;80.07
47330;BME280;33060;50.178;7.570;2023-03-20T09:02:24;97367.06;;;10.96;79.98
47330;BME280;33060;50.178;7.570;2023-03-20T09:05:01;97366.78;;;11.14;79.36
47330;BME280;33060;50.178;7.570;2023-03-20T09:07:28;97360.06;;;11.86;77.13
47330;BME280;33060;50.178;7.570;2023-03-20T09:09:55;97369.47;;;11.65;76.30
47330;BME280;33060;50.178;7.570;2023-03-20T09:12:21;97369.03;;;11.58;75.85
47330;BME280;33060;50.178;7.570;2023-03-20T09:14:48;97374.63;;;12.04;75.54
47330;BME280;33060;50.178;7.570;2023-03-20T09:17:15;97374.84;;;11.88;73.00
47330;BME280;33060;50.178;7.570;2023-03-20T09:19:42;97376.41;;;11.78;72.44
47330;BME280;33060;50.178;7.570;2023-03-20T09:22:13;97380.97;;;11.89;71.96
47330;BME280;33060;50.178;7.570;2023-03-20T09:24:40;97377.91;;;11.70;73.39
47330;BME280;33060;50.178;7.570;2023-03-20T09:27:07;97382.53;;;11.79;73.31
47330;BME280;33060;50.178;7.570;2023-03-20T09:29:34;97389.00;;;11.49;73.06
47330;BME280;33060;50.178;7.570;2023-03-20T09:32:01;97399.31;;;11.27;72.91
47330;BME280;33060;50.178;7.570;2023-03-20T09:34:27;97401.72;;;11.04;74.19
47330;BME280;33060;50.178;7.570;2023-03-20T09:36:54;97409.81;;;10.89;74.96
47330;BME280;33060;50.178;7.570;2023-03-20T09:39:22;97407.75;;;10.53;76.37
47330;BME280;33060;50.178;7.570;2023-03-20T09:41:49;97407.66;;;10.81;75.40
47330;BME280;33060;50.178;7.570;2023-03-20T09:45:22;97420.03;;;10.93;75.61
47330;BME280;33060;50.178;7.570;2023-03-20T09:47:43;97419.34;;;10.77;69.91
47330;BME280;33060;50.178;7.570;2023-03-20T09:50:23;97417.25;;;10.82;70.68
47330;BME280;33060;50.178;7.570;2023-03-20T09:53:46;97412.59;;;10.73;67.82
47330;BME280;33060;50.178;7.570;2023-03-20T09:56:04;97419.16;;;10.80;67.85
47330;BME280;33060;50.178;7.570;2023-03-20T09:58:36;97417.16;;;10.84;67.76
47330;BME280;33060;50.178;7.570;2023-03-20T10:01:05;97410.94;;;10.85;68.30
47330;BME280;33060;50.178;7.570;2023-03-20T10:03:48;97412.44;;;10.89;67.90
47330;BME280;33060;50.178;7.570;2023-03-20T10:06:16;97416.06;;;11.00;67.63
47330;BME280;33060;50.178;7.570;2023-03-20T10:08:45;97411.38;;;10.91;67.27
47330;BME280;33060;50.178;7.570;2023-03-20T10:11:39;97414.41;;;11.12;65.70
47330;BME280;33060;50.178;7.570;2023-03-20T10:24:46;97401.88;;;11.41;66.13
47330;BME280;33060;50.178;7.570;2023-03-20T10:27:23;97404.09;;;11.22;65.50
47330;BME280;33060;50.178;7.570;2023-03-20T10:30:06;97410.38;;;11.07;65.76
47330;BME280;33060;50.178;7.570;2023-03-20T10:38:12;97403.06;;;10.97;67.41
47330;BME280;33060;50.178;7.570;2023-03-20T10:40:41;97408.63;;;10.93;67.10
47330;BME280;33060;50.178;7.570;2023-03-20T10:43:20;97406.56;;;11.11;66.20
47330;BME280;33060;50.178;7.570;2023-03-20T10:45:51;97394.69;;;11.30;65.69
47330;BME280;33060;50.178;7.570;2023-03-20T10:48:23;97398.41;;;11.41;66.50
47330;BME280;33060;50.178;7.570;2023-03-20T10:50:58;97401.88;;;11.41;64.00
47330;BME280;33060;50.178;7.570;2023-03-20T10:53:30;97387.44;;;11.47;62.49
47330;BME280;33060;50.178;7.570;2023-03-20T10:56:01;97397.44;;;11.54;60.75
47330;BME280;33060;50.178;7.570;2023-03-20T10:58:34;97391.66;;;11.75;60.00
47330;BME280;33060;50.178;7.570;2023-03-20T11:01:03;97391.78;;;11.86;58.70
47330;BME280;33060;50.178;7.570;2023-03-20T11:03:30;97384.81;;;11.85;57.68
47330;BME280;33060;50.178;7.570;2023-03-20T11:06:01;97377.91;;;12.08;58.49
47330;BME280;33060;50.178;7.570;2023-03-20T11:08:39;97380.94;;;12.14;57.66
47330;BME280;33060;50.178;7.570;2023-03-20T11:11:07;97384.22;;;12.05;55.56
47330;BME280;33060;50.178;7.570;2023-03-20T11:13:40;97387.63;;;11.95;54.41
47330;BME280;33060;50.178;7.570;2023-03-20T11:16:21;97374.75;;;11.65;50.69
47330;BME280;33060;50.178;7.570;2023-03-20T11:18:49;97380.66;;;11.55;51.62
47330;BME280;33060;50.178;7.570;2023-03-20T11:21:26;97373.28;;;11.48;51.29
47330;BME280;33060;50.178;7.570;2023-03-20T11:23:53;97374.31;;;11.45;51.95
47330;BME280;33060;50.178;7.570;2023-03-20T11:28:59;97371.13;;;11.27;52.61
47330;BME280;33060;50.178;7.570;2023-03-20T11:31:34;97369.88;;;11.33;52.00
47330;BME280;33060;50.178;7.570;2023-03-20T11:37:05;97363.84;;;11.44;53.39
47330;BME280;33060;50.178;7.570;2023-03-20T11:39:36;97361.31;;;11.42;53.79
47330;BME280;33060;50.178;7.570;2023-03-20T11:42:21;97362.78;;;11.33;53.40
47330;BME280;33060;50.178;7.570;2023-03-20T11:45:00;97366.06;;;11.37;53.94
47330;BME280;33060;50.178;7.570;2023-03-20T11:47:30;97363.97;;;11.42;54.65
47330;BME280;33060;50.178;7.570;2023-03-20T11:50:00;97363.66;;;11.47;54.42
47330;BME280;33060;50.178;7.570;2023-03-20T11:52:31;97359.81;;;11.64;53.51
47330;BME280;33060;50.178;7.570;2023-03-20T11:55:01;97361.31;;;11.68;53.80
47330;BME280;33060;50.178;7.570;2023-03-20T12:00:01;97360.47;;;11.54;53.52
47330;BME280;33060;50.178;7.570;2023-03-20T12:02:49;97368.59;;;11.51;53.68
47330;BME280;33060;50.178;7.570;2023-03-20T12:07:57;97357.19;;;11.64;51.93
47330;BME280;33060;50.178;7.570;2023-03-20T12:10:30;97355.31;;;11.66;51.67
47330;BME280;33060;50.178;7.570;2023-03-20T12:13:02;97355.94;;;11.56;53.52
47330;BME280;33060;50.178;7.570;2023-03-20T12:15:33;97356.56;;;11.60;52.37
47330;BME280;33060;50.178;7.570;2023-03-20T12:26:08;97348.84;;;11.57;51.74
47330;BME280;33060;50.178;7.570;2023-03-20T12:28:45;97339.63;;;11.75;52.69
47330;BME280;33060;50.178;7.570;2023-03-20T12:31:23;97337.75;;;11.65;51.59
47330;BME280;33060;50.178;7.570;2023-03-20T12:38:57;97343.44;;;11.20;51.05
47330;BME280;33060;50.178;7.570;2023-03-20T12:41:28;97336.91;;;11.13;51.51
47330;BME280;33060;50.178;7.570;2023-03-20T12:47:14;97332.75;;;10.96;51.52
47330;BME280;33060;50.178;7.570;2023-03-20T12:49:36;97329.22;;;10.83;52.12
47330;BME280;33060;50.178;7.570;2023-03-20T12:52:36;97343.16;;;10.72;52.83
47330;BME280;33060;50.178;7.570;2023-03-20T12:58:03;97315.69;;;10.75;52.16
47330;BME280;33060;50.178;7.570;2023-03-20T13:00:36;97323.53;;;10.50;52.60
47330;BME280;33060;50.178;7.570;2023-03-20T13:06:13;97323.72;;;10.19;54.58
47330;BME280;33060;50.178;7.570;2023-03-20T13:08:59;97305.94;;;10.23;54.90
47330;BME280;33060;50.178;7.570;2023-03-20T13:11:49;97307.44;;;10.27;55.84
47330;BME280;33060;50.178;7.570;2023-03-20T13:25:07;97305.53;;;10.56;54.30
47330;BME280;33060;50.178;7.570;2023-03-20T13:27:51;97295.03;;;10.82;53.42
47330;BME280;33060;50.178;7.570;2023-03-20T13:30:27;97294.50;;;10.76;55.17
47330;BME280;33060;50.178;7.570;2023-03-20T13:35:53;97305.28;;;10.46;56.16
47330;BME280;33060;50.178;7.570;2023-03-20T13:38:28;97294.47;;;10.64;55.35
47330;BME280;33060;50.178;7.570;2023-03-20T13:41:02;97291.91;;;10.50;54.77
47330;BME280;33060;50.178;7.570;2023-03-20T13:43:30;97294.13;;;10.43;55.34
47330;BME280;33060;50.178;7.570;2023-03-20T13:46:06;97286.38;;;10.40;54.27
47330;BME280;33060;50.178;7.570;2023-03-20T13:48:37;97282.34;;;10.61;54.81
47330;BME280;33060;50.178;7.570;2023-03-20T13:56:40;97277.19;;;10.85;55.99
47330;BME280;33060;50.178;7.570;2023-03-20T14:04:34;97273.53;;;10.88;55.10
47330;BME280;33060;50.178;7.570;2023-03-20T14:07:00;97270.88;;;11.00;56.10
47330;BME280;33060;50.178;7.570;2023-03-20T14:09:35;97277.81;;;10.76;54.89
47330;BME280;33060;50.178;7.570;2023-03-20T14:12:06;97290.81;;;10.79;54.86
47330;BME280;33060;50.178;7.570;2023-03-20T14:14:53;97290.66;;;10.68;55.94
47330;BME280;33060;50.178;7.570;2023-03-20T14:17:31;97289.59;;;10.58;56.11
47330;BME280;33060;50.178;7.570;2023-03-20T14:20:10;97282.75;;;10.55;56.75
47330;BME280;33060;50.178;7.570;2023-03-20T14:22:39;97288.25;;;10.65;56.44
47330;BME280;33060;50.178;7.570;2023-03-20T14:25:16;97277.75;;;10.78;56.79
47330;BME280;33060;50.178;7.570;2023-03-20T14:28:08;97279.53;;;10.90;55.60
47330;BME280;33060;50.178;7.570;2023-03-20T14:30:48;97280.91;;;10.83;56.83
47330;BME280;33060;50.178;7.570;2023-03-20T14:35:48;97272.19;;;10.55;55.32
47330;BME280;33060;50.178;7.570;2023-03-20T14:38:24;97284.22;;;10.59;55.25
47330;BME280;33060;50.178;7.570;2023-03-20T14:41:02;97276.97;;;10.63;55.83
47330;BME280;33060;50.178;7.570;2023-03-20T14:46:28;97275.16;;;10.63;55.47
47330;BME280;33060;50.178;7.570;2023-03-20T14:48:55;97279.19;;;10.82;56.41
47330;BME280;33060;50.178;7.570;2023-03-20T14:51:52;97279.19;;;10.69;55.05
47330;BME280;33060;50.178;7.570;2023-03-20T14:54:27;97276.00;;;10.64;55.96
47330;BME280;33060;50.178;7.570;2023-03-20T14:56:55;97272.53;;;10.76;55.20
47330;BME280;33060;50.178;7.570;2023-03-20T14:59:33;97275.94;;;10.78;55.36
47330;BME280;33060;50.178;7.570;2023-03-20T15:02:01;97264.72;;;10.74;54.92
47330;BME280;33060;50.178;7.570;2023-03-20T15:04:35;97289.06;;;10.53;55.60
47330;BME280;33060;50.178;7.570;2023-03-20T15:07:09;97286.47;;;10.26;56.39
47330;BME280;33060;50.178;7.570;2023-03-20T15:09:42;97281.28;;;10.10;56.95
47330;BME280;33060;50.178;7.570;2023-03-20T15:12:13;97282.25;;;10.09;57.21